createdAt,value
2017-09-12T00:00:05.972Z,16.5
2017-09-12T00:01:07.374Z,16.5
2017-09-12T00:02:28.885Z,16.4
2017-09-12T00:03:30.287Z,16.4
2017-09-12T00:04:51.778Z,16.5
2017-09-12T00:05:53.180Z,16.4
2017-09-12T00:07:14.688Z,16.4
2017-09-12T00:08:16.095Z,16.4
2017-09-12T00:09:37.601Z,16.5
2017-09-12T00:10:39.006Z,16.5
2017-09-12T00:12:00.496Z,16.4
2017-09-12T00:13:01.897Z,16.5
2017-09-12T00:14:23.409Z,16.6
2017-09-12T00:15:24.814Z,16.4
2017-09-12T00:16:46.299Z,16.5
2017-09-12T00:17:47.700Z,16.4
2017-09-12T00:19:09.214Z,16.4
2017-09-12T00:20:10.618Z,16.4
2017-09-12T00:21:32.108Z,16.5
2017-09-12T00:22:33.511Z,16.4
2017-09-12T00:23:55.025Z,16.4
2017-09-12T00:24:56.427Z,16.5
2017-09-12T00:26:17.924Z,16.4
2017-09-12T00:27:19.329Z,16.4
2017-09-12T00:28:40.838Z,16.4
2017-09-12T00:29:42.245Z,16.4
2017-09-12T00:31:03.736Z,16.5
2017-09-12T00:32:05.137Z,16.4
2017-09-12T00:33:26.649Z,16.4
2017-09-12T00:34:28.057Z,16.3
2017-09-12T00:35:49.544Z,16.3
2017-09-12T00:36:50.946Z,16.3
2017-09-12T00:38:12.458Z,16.4
2017-09-12T00:39:13.861Z,16.3
2017-09-12T00:40:35.355Z,16.3
2017-09-12T00:41:36.755Z,16.4
2017-09-12T00:42:58.266Z,16.4
2017-09-12T00:43:59.668Z,16.4
2017-09-12T00:45:21.163Z,16.3
2017-09-12T00:46:22.569Z,16.3
2017-09-12T00:47:44.079Z,16.3
2017-09-12T00:48:45.481Z,16.2
2017-09-12T00:50:06.970Z,16.2
2017-09-12T00:51:08.374Z,16.2
2017-09-12T00:52:29.869Z,16.2
2017-09-12T00:53:31.271Z,16.2
2017-09-12T00:54:52.790Z,16.3
2017-09-12T00:55:54.185Z,16.3
2017-09-12T00:57:15.681Z,16.3
2017-09-12T00:58:17.081Z,16.2
2017-09-12T00:59:38.592Z,16.2
2017-09-12T01:00:39.995Z,16.2
2017-09-12T01:02:01.485Z,16.2
2017-09-12T01:03:02.887Z,16.2
2017-09-12T01:04:24.396Z,16.2
2017-09-12T01:05:25.796Z,16.1
2017-09-12T01:06:47.287Z,16.2
2017-09-12T01:07:48.688Z,16.2
2017-09-12T01:09:10.200Z,16.3
2017-09-12T01:10:11.602Z,16.2
2017-09-12T01:11:33.093Z,16.3
2017-09-12T01:12:34.493Z,16.4
2017-09-12T01:13:56.006Z,16.3
2017-09-12T01:14:57.407Z,16.4
2017-09-12T01:16:18.898Z,16.4
2017-09-12T01:17:20.300Z,16.3
2017-09-12T01:18:41.812Z,16.2
2017-09-12T01:19:43.219Z,16.2
2017-09-12T01:21:04.707Z,16.3
2017-09-12T01:22:06.107Z,16.2
2017-09-12T01:23:27.617Z,16.2
2017-09-12T01:24:29.020Z,16.2
2017-09-12T01:25:50.514Z,16.3
2017-09-12T01:26:51.916Z,16.2
2017-09-12T01:28:13.429Z,16.2
2017-09-12T01:29:14.832Z,16.2
2017-09-12T01:30:36.323Z,16.3
2017-09-12T01:31:37.724Z,16.1
2017-09-12T01:32:59.223Z,16.3
2017-09-12T01:34:00.622Z,16.2
2017-09-12T01:35:22.133Z,16.3
2017-09-12T01:36:23.534Z,16.2
2017-09-12T01:37:45.025Z,16.2
2017-09-12T01:38:46.427Z,16.2
2017-09-12T01:40:07.936Z,16.2
2017-09-12T01:41:09.342Z,16.2
2017-09-12T01:42:30.832Z,16.2
2017-09-12T01:43:32.231Z,16.1
2017-09-12T01:44:53.743Z,16.2
2017-09-12T01:45:55.144Z,16.1
2017-09-12T01:47:16.639Z,16.2
2017-09-12T01:48:18.040Z,16.1
2017-09-12T01:49:39.551Z,16.1
2017-09-12T01:50:40.954Z,16.2
2017-09-12T01:52:02.444Z,16.2
2017-09-12T01:53:03.845Z,16.1
2017-09-12T01:54:25.362Z,16.1
2017-09-12T01:55:26.763Z,16.1
2017-09-12T01:56:48.252Z,16.0
2017-09-12T01:57:49.657Z,16.0
2017-09-12T01:59:11.167Z,16.0
2017-09-12T02:00:12.569Z,16.0
2017-09-12T02:01:34.058Z,16.1
2017-09-12T02:02:35.460Z,16.0
2017-09-12T02:03:56.971Z,16.0
2017-09-12T02:04:58.373Z,16.1
2017-09-12T02:06:19.861Z,16.1
2017-09-12T02:07:21.261Z,16.2
2017-09-12T02:08:42.776Z,16.1
2017-09-12T02:09:44.180Z,16.1
2017-09-12T02:11:05.667Z,16.1
2017-09-12T02:12:07.070Z,16.1
2017-09-12T02:13:28.582Z,16.2
2017-09-12T02:14:29.986Z,16.1
2017-09-12T02:15:51.490Z,16.2
2017-09-12T02:16:52.891Z,16.2
2017-09-12T02:18:14.380Z,16.2
2017-09-12T02:19:15.783Z,16.2
2017-09-12T02:20:37.292Z,16.2
2017-09-12T02:21:38.693Z,16.2
2017-09-12T02:23:00.182Z,16.2
2017-09-12T02:24:01.582Z,16.2
2017-09-12T02:25:23.095Z,16.1
2017-09-12T02:26:24.499Z,16.2
2017-09-12T02:27:45.985Z,16.2
2017-09-12T02:28:47.389Z,16.2
2017-09-12T02:30:08.900Z,16.2
2017-09-12T02:31:10.305Z,16.2
2017-09-12T02:32:31.790Z,16.3
2017-09-12T02:33:33.192Z,16.3
2017-09-12T02:34:54.702Z,16.3
2017-09-12T02:35:56.103Z,16.3
2017-09-12T02:37:17.594Z,16.2
2017-09-12T02:38:19.000Z,16.2
2017-09-12T02:39:40.511Z,16.2
2017-09-12T02:40:41.918Z,16.2
2017-09-12T02:42:03.403Z,16.3
2017-09-12T02:43:04.808Z,16.2
2017-09-12T02:44:26.329Z,16.2
2017-09-12T02:45:27.722Z,16.2
2017-09-12T02:46:49.215Z,16.1
2017-09-12T02:47:50.615Z,16.1
2017-09-12T02:49:12.131Z,16.2
2017-09-12T02:50:13.534Z,16.1
2017-09-12T02:51:35.024Z,16.2
2017-09-12T02:52:36.425Z,16.2
2017-09-12T02:53:57.937Z,16.0
2017-09-12T02:54:59.337Z,16.0
2017-09-12T02:56:20.828Z,16.1
2017-09-12T02:57:22.231Z,16.0
2017-09-12T02:58:43.722Z,16.0
2017-09-12T02:59:45.123Z,15.9
2017-09-12T03:01:06.631Z,15.8
2017-09-12T03:02:08.034Z,15.8
2017-09-12T03:03:29.528Z,15.8
2017-09-12T03:04:30.928Z,15.8
2017-09-12T03:05:52.440Z,15.8
2017-09-12T03:06:53.841Z,15.7
2017-09-12T03:08:15.332Z,15.9
2017-09-12T03:09:16.737Z,15.8
2017-09-12T03:10:38.249Z,15.8
2017-09-12T03:11:39.652Z,15.7
2017-09-12T03:13:01.147Z,15.7
2017-09-12T03:14:02.548Z,15.6
2017-09-12T03:15:24.062Z,15.6
2017-09-12T03:16:25.464Z,15.6
2017-09-12T03:17:46.953Z,15.6
2017-09-12T03:18:48.355Z,15.5
2017-09-12T03:20:09.868Z,15.5
2017-09-12T03:21:11.268Z,15.5
2017-09-12T03:22:32.760Z,15.4
2017-09-12T03:23:34.160Z,15.4
2017-09-12T03:24:55.677Z,15.4
2017-09-12T03:25:57.079Z,15.3
2017-09-12T03:27:18.609Z,15.4
2017-09-12T03:28:20.011Z,15.4
2017-09-12T03:29:41.522Z,15.4
2017-09-12T03:30:42.924Z,15.4
2017-09-12T03:32:04.607Z,15.4
2017-09-12T03:33:06.009Z,15.3
2017-09-12T03:34:27.524Z,15.4
2017-09-12T03:35:28.924Z,15.4
2017-09-12T03:36:50.419Z,15.4
2017-09-12T03:37:51.822Z,15.4
2017-09-12T03:39:13.334Z,15.4
2017-09-12T03:40:14.734Z,15.4
2017-09-12T03:41:36.227Z,15.4
2017-09-12T03:42:37.628Z,15.4
2017-09-12T03:43:59.120Z,15.3
2017-09-12T03:45:00.519Z,15.3
2017-09-12T03:46:22.035Z,15.4
2017-09-12T03:47:23.437Z,15.4
2017-09-12T03:48:44.926Z,15.4
2017-09-12T03:49:46.329Z,15.5
2017-09-12T03:51:07.843Z,15.3
2017-09-12T03:52:09.247Z,15.4
2017-09-12T03:53:30.735Z,15.5
2017-09-12T03:54:32.135Z,15.4
2017-09-12T03:55:53.652Z,15.5
2017-09-12T03:56:55.056Z,15.5
2017-09-12T03:58:16.609Z,15.5
2017-09-12T03:59:17.969Z,15.5
2017-09-12T04:00:39.480Z,15.5
2017-09-12T04:01:40.882Z,15.4
2017-09-12T04:03:02.374Z,15.5
2017-09-12T04:04:03.775Z,15.6
2017-09-12T04:05:25.284Z,15.6
2017-09-12T04:06:26.688Z,15.5
2017-09-12T04:07:48.176Z,15.6
2017-09-12T04:08:49.579Z,15.5
2017-09-12T04:10:11.090Z,15.6
2017-09-12T04:11:12.493Z,15.6
2017-09-12T04:12:33.990Z,15.6
2017-09-12T04:13:35.395Z,15.6
2017-09-12T04:14:56.911Z,15.6
2017-09-12T04:15:58.314Z,15.5
2017-09-12T04:17:19.804Z,15.7
2017-09-12T04:18:21.206Z,15.6
2017-09-12T04:19:42.704Z,15.6
2017-09-12T04:20:44.105Z,15.6
2017-09-12T04:22:05.617Z,15.6
2017-09-12T04:23:07.023Z,15.6
2017-09-12T04:24:28.512Z,15.6
2017-09-12T04:25:29.910Z,15.5
2017-09-12T04:26:51.417Z,15.7
2017-09-12T04:27:52.821Z,15.6
2017-09-12T04:29:14.314Z,15.6
2017-09-12T04:30:15.711Z,15.5
2017-09-12T04:31:37.220Z,15.6
2017-09-12T04:32:38.622Z,15.6
2017-09-12T04:34:00.116Z,15.6
2017-09-12T04:35:01.522Z,15.5
2017-09-12T04:36:23.025Z,15.5
2017-09-12T04:37:24.427Z,15.6
2017-09-12T04:38:45.921Z,15.6
2017-09-12T04:39:47.320Z,15.5
2017-09-12T04:41:08.834Z,15.6
2017-09-12T04:42:10.240Z,15.6
2017-09-12T04:43:31.732Z,15.6
2017-09-12T04:44:33.135Z,15.6
2017-09-12T04:45:54.646Z,15.6
2017-09-12T04:46:56.049Z,15.6
2017-09-12T04:48:17.537Z,15.5
2017-09-12T04:49:18.940Z,15.6
2017-09-12T04:50:40.453Z,15.7
2017-09-12T04:51:41.858Z,15.7
2017-09-12T04:53:03.349Z,15.7
2017-09-12T04:54:04.752Z,15.7
2017-09-12T04:55:26.264Z,15.7
2017-09-12T04:56:27.672Z,15.6
2017-09-12T04:57:49.159Z,15.6
2017-09-12T04:58:50.561Z,15.5
2017-09-12T05:00:12.074Z,15.4
2017-09-12T05:01:13.479Z,15.5
2017-09-12T05:02:34.972Z,15.5
2017-09-12T05:03:36.375Z,15.5
2017-09-12T05:04:57.871Z,15.6
2017-09-12T05:05:59.276Z,15.5
2017-09-12T05:07:20.794Z,15.5
2017-09-12T05:08:22.199Z,15.5
2017-09-12T05:09:43.693Z,15.5
2017-09-12T05:10:45.096Z,15.4
2017-09-12T05:12:06.616Z,15.3
2017-09-12T05:13:08.020Z,15.4
2017-09-12T05:14:29.513Z,15.4
2017-09-12T05:15:30.918Z,15.5
2017-09-12T05:16:52.439Z,15.3
2017-09-12T05:17:53.839Z,15.3
2017-09-12T05:19:15.463Z,15.4
2017-09-12T05:20:16.866Z,15.3
2017-09-12T05:21:38.380Z,15.3
2017-09-12T05:22:39.786Z,15.3
2017-09-12T05:24:01.281Z,15.3
2017-09-12T05:25:02.688Z,15.2
2017-09-12T05:26:24.202Z,15.3
2017-09-12T05:27:25.607Z,15.3
2017-09-12T05:28:47.106Z,15.3
2017-09-12T05:29:48.510Z,15.4
2017-09-12T05:31:10.024Z,15.4
2017-09-12T05:32:11.432Z,15.4
2017-09-12T05:33:32.925Z,15.4
2017-09-12T05:34:34.329Z,15.4
2017-09-12T05:35:55.849Z,15.3
2017-09-12T05:36:57.253Z,15.4
2017-09-12T05:38:18.752Z,15.5
2017-09-12T05:39:20.154Z,15.4
2017-09-12T05:40:41.667Z,15.3
2017-09-12T05:41:43.074Z,15.4
2017-09-12T05:43:04.567Z,15.5
2017-09-12T05:44:05.972Z,15.5
2017-09-12T05:45:27.470Z,15.4
2017-09-12T05:46:28.874Z,15.4
2017-09-12T05:47:50.389Z,15.4
2017-09-12T05:48:51.796Z,15.3
2017-09-12T05:50:13.294Z,15.4
2017-09-12T05:51:14.699Z,15.4
2017-09-12T05:52:36.209Z,15.3
2017-09-12T05:53:37.616Z,15.3
2017-09-12T05:54:59.111Z,15.4
2017-09-12T05:56:00.517Z,15.5
2017-09-12T05:57:22.030Z,15.5
2017-09-12T05:58:23.438Z,15.4
2017-09-12T05:59:44.934Z,15.4
2017-09-12T06:00:46.342Z,15.5
2017-09-12T06:02:07.861Z,15.4
2017-09-12T06:03:09.268Z,15.5
2017-09-12T06:04:30.763Z,15.5
2017-09-12T06:05:32.169Z,15.4
2017-09-12T06:06:53.685Z,15.4
2017-09-12T06:07:55.092Z,15.5
2017-09-12T06:09:16.592Z,15.6
2017-09-12T06:10:17.997Z,15.6
2017-09-12T06:11:39.514Z,15.4
2017-09-12T06:12:40.922Z,15.5
2017-09-12T06:14:02.422Z,15.6
2017-09-12T06:15:03.830Z,15.6
2017-09-12T06:16:25.345Z,15.5
2017-09-12T06:17:26.753Z,15.6
2017-09-12T06:18:48.245Z,15.6
2017-09-12T06:19:49.650Z,15.6
2017-09-12T06:21:11.166Z,15.6
2017-09-12T06:22:12.572Z,15.6
2017-09-12T06:23:34.073Z,15.6
2017-09-12T06:24:35.478Z,15.6
2017-09-12T06:25:56.995Z,15.6
2017-09-12T06:26:58.404Z,15.7
2017-09-12T06:28:20.083Z,15.7
2017-09-12T06:29:21.491Z,15.5
2017-09-12T06:30:42.989Z,15.5
2017-09-12T06:31:44.391Z,15.7
2017-09-12T06:33:05.908Z,15.6
2017-09-12T06:34:07.316Z,15.6
2017-09-12T06:35:28.815Z,15.6
2017-09-12T06:36:30.220Z,15.7
2017-09-12T06:37:51.735Z,15.8
2017-09-12T06:38:53.146Z,15.8
2017-09-12T06:40:14.650Z,15.9
2017-09-12T06:41:16.054Z,15.7
2017-09-12T06:42:37.569Z,15.8
2017-09-12T06:43:38.979Z,15.8
2017-09-12T06:45:00.481Z,15.8
2017-09-12T06:46:01.887Z,15.9
2017-09-12T06:47:23.405Z,16.0
2017-09-12T06:48:24.815Z,16.0
2017-09-12T06:49:46.903Z,16.1
2017-09-12T06:50:48.308Z,16.2
2017-09-12T06:52:10.204Z,16.3
2017-09-12T06:53:11.589Z,16.4
2017-09-12T06:54:33.098Z,16.3
2017-09-12T06:55:34.508Z,16.3
2017-09-12T06:56:56.028Z,16.4
2017-09-12T06:57:57.433Z,16.3
2017-09-12T06:59:18.931Z,16.4
2017-09-12T07:00:20.338Z,16.4
2017-09-12T07:01:41.858Z,16.4
2017-09-12T07:02:43.267Z,16.3
2017-09-12T07:04:04.770Z,16.3
2017-09-12T07:05:06.179Z,16.3
2017-09-12T07:06:27.694Z,16.4
2017-09-12T07:07:29.105Z,16.3
2017-09-12T07:08:50.605Z,16.5
2017-09-12T07:09:52.010Z,16.6
2017-09-12T07:11:13.530Z,16.5
2017-09-12T07:12:14.938Z,16.5
2017-09-12T07:13:36.436Z,16.6
2017-09-12T07:14:37.848Z,16.6
2017-09-12T07:15:59.395Z,16.6
2017-09-12T07:17:00.804Z,16.7
2017-09-12T07:18:22.333Z,16.5
2017-09-12T07:19:23.733Z,16.6
2017-09-12T07:20:45.234Z,16.7
2017-09-12T07:21:46.638Z,16.8
2017-09-12T07:23:08.155Z,16.7
2017-09-12T07:24:09.565Z,16.7
2017-09-12T07:25:31.066Z,16.7
2017-09-12T07:26:32.475Z,16.7
2017-09-12T07:27:53.992Z,16.6
2017-09-12T07:28:55.405Z,16.7
2017-09-12T07:30:16.907Z,16.8
2017-09-12T07:31:18.314Z,16.8
2017-09-12T07:32:39.832Z,16.9
2017-09-12T07:33:41.239Z,16.8
2017-09-12T07:35:02.737Z,16.8
2017-09-12T07:36:04.147Z,16.8
2017-09-12T07:37:25.673Z,16.7
2017-09-12T07:38:27.078Z,16.4
2017-09-12T07:39:48.577Z,16.5
2017-09-12T07:40:49.984Z,16.4
2017-09-12T07:42:11.502Z,16.4
2017-09-12T07:43:12.910Z,16.5
2017-09-12T07:44:34.415Z,16.3
2017-09-12T07:45:35.822Z,16.4
2017-09-12T07:46:57.343Z,16.3
2017-09-12T07:47:58.751Z,16.3
2017-09-12T07:49:20.252Z,16.4
2017-09-12T07:50:21.659Z,16.5
2017-09-12T07:51:43.180Z,16.7
2017-09-12T07:52:44.589Z,16.8
2017-09-12T07:54:06.087Z,16.9
2017-09-12T07:55:07.495Z,17.0
2017-09-12T07:56:29.030Z,17.2
2017-09-12T07:57:30.425Z,17.2
2017-09-12T07:58:51.925Z,17.2
2017-09-12T07:59:53.332Z,17.3
2017-09-12T08:01:14.835Z,17.3
2017-09-12T08:02:16.243Z,17.4
2017-09-12T08:03:37.763Z,17.4
2017-09-12T08:04:39.173Z,17.4
2017-09-12T08:06:00.675Z,17.7
2017-09-12T08:07:02.085Z,17.8
2017-09-12T08:08:23.606Z,18.0
2017-09-12T08:09:25.014Z,18.1
2017-09-12T08:10:47.011Z,18.2
2017-09-12T08:11:48.421Z,18.1
2017-09-12T08:13:09.945Z,18.1
2017-09-12T08:14:11.355Z,18.2
2017-09-12T08:15:32.858Z,18.3
2017-09-12T08:16:34.267Z,18.3
2017-09-12T08:17:55.787Z,18.2
2017-09-12T08:18:57.198Z,18.3
2017-09-12T08:20:18.702Z,18.2
2017-09-12T08:21:20.112Z,18.1
2017-09-12T08:22:41.634Z,18.0
2017-09-12T08:23:43.043Z,18.1
2017-09-12T08:25:04.546Z,18.1
2017-09-12T08:26:05.955Z,17.8
2017-09-12T08:27:27.480Z,17.8
2017-09-12T08:28:28.889Z,17.8
2017-09-12T08:29:50.397Z,17.7
2017-09-12T08:30:51.807Z,17.7
2017-09-12T08:32:13.330Z,17.7
2017-09-12T08:33:14.738Z,17.7
2017-09-12T08:34:36.238Z,17.7
2017-09-12T08:35:37.646Z,17.7
2017-09-12T08:36:59.167Z,17.8
2017-09-12T08:38:00.578Z,17.8
2017-09-12T08:39:22.082Z,18.0
2017-09-12T08:40:23.492Z,18.0
2017-09-12T08:41:44.991Z,18.0
2017-09-12T08:42:46.401Z,18.1
2017-09-12T08:44:07.925Z,18.1
2017-09-12T08:45:09.334Z,18.0
2017-09-12T08:46:30.836Z,18.1
2017-09-12T08:47:32.245Z,18.1
2017-09-12T08:48:53.767Z,18.0
2017-09-12T08:49:55.178Z,18.0
2017-09-12T08:51:16.679Z,18.2
2017-09-12T08:52:18.087Z,17.9
2017-09-12T08:53:39.609Z,17.9
2017-09-12T08:54:41.018Z,17.9
2017-09-12T08:56:02.521Z,17.9
2017-09-12T08:57:03.931Z,17.8
2017-09-12T08:58:25.453Z,17.7
2017-09-12T08:59:26.863Z,17.8
2017-09-12T09:00:48.367Z,17.8
2017-09-12T09:01:49.774Z,18.0
2017-09-12T09:03:11.297Z,18.1
2017-09-12T09:04:12.706Z,18.1
2017-09-12T09:05:34.209Z,18.2
2017-09-12T09:06:35.618Z,18.3
2017-09-12T09:07:57.148Z,18.4
2017-09-12T09:08:58.552Z,18.3
2017-09-12T09:10:20.051Z,18.2
2017-09-12T09:11:21.461Z,18.3
2017-09-12T09:12:42.981Z,18.1
2017-09-12T09:13:44.394Z,18.1
2017-09-12T09:15:05.895Z,18.0
2017-09-12T09:16:07.304Z,18.1
2017-09-12T09:17:28.830Z,18.2
2017-09-12T09:18:30.240Z,18.1
2017-09-12T09:19:51.744Z,18.1
2017-09-12T09:20:53.151Z,18.0
2017-09-12T09:22:14.669Z,18.0
2017-09-12T09:23:16.079Z,17.7
2017-09-12T09:24:37.580Z,17.7
2017-09-12T09:25:38.990Z,17.7
2017-09-12T09:27:00.490Z,17.8
2017-09-12T09:28:01.906Z,17.6
2017-09-12T09:29:23.423Z,17.8
2017-09-12T09:30:24.831Z,17.9
2017-09-12T09:31:46.331Z,17.9
2017-09-12T09:32:47.740Z,18.1
2017-09-12T09:34:09.264Z,18.2
2017-09-12T09:35:10.674Z,18.3
2017-09-12T09:36:32.186Z,18.5
2017-09-12T09:37:33.596Z,18.5
2017-09-12T09:38:55.118Z,18.6
2017-09-12T09:39:56.529Z,18.5
2017-09-12T09:41:18.028Z,18.5
2017-09-12T09:42:19.458Z,18.6
2017-09-12T09:43:40.961Z,18.7
2017-09-12T09:44:42.371Z,18.6
2017-09-12T09:46:03.884Z,18.6
2017-09-12T09:47:05.295Z,18.5
2017-09-12T09:48:26.816Z,18.4
2017-09-12T09:49:28.229Z,18.4
2017-09-12T09:50:49.728Z,18.5
2017-09-12T09:51:51.142Z,18.5
2017-09-12T09:53:12.660Z,18.4
2017-09-12T09:54:14.070Z,18.4
2017-09-12T09:55:35.579Z,18.4
2017-09-12T09:56:36.988Z,18.6
2017-09-12T09:57:58.510Z,18.7
2017-09-12T09:58:59.920Z,18.6
2017-09-12T10:00:21.421Z,18.7
2017-09-12T10:01:22.830Z,18.6
2017-09-12T10:02:44.354Z,18.8
2017-09-12T10:03:45.764Z,18.8
2017-09-12T10:05:07.271Z,18.8
2017-09-12T10:06:08.681Z,19.0
2017-09-12T10:07:30.222Z,19.3
2017-09-12T10:08:31.633Z,19.3
2017-09-12T10:09:53.136Z,19.5
2017-09-12T10:10:54.546Z,19.6
2017-09-12T10:12:16.048Z,19.6
2017-09-12T10:13:17.458Z,19.5
2017-09-12T10:14:38.983Z,19.6
2017-09-12T10:15:40.396Z,19.5
2017-09-12T10:17:02.392Z,19.6
2017-09-12T10:18:03.803Z,19.6
2017-09-12T10:19:25.330Z,19.6
2017-09-12T10:20:26.740Z,19.6
2017-09-12T10:21:48.243Z,19.7
2017-09-12T10:22:49.653Z,19.7
2017-09-12T10:24:11.176Z,20.0
2017-09-12T10:25:12.587Z,19.9
2017-09-12T10:26:34.093Z,20.1
2017-09-12T10:27:35.501Z,20.1
2017-09-12T10:28:57.026Z,20.3
2017-09-12T10:29:58.439Z,20.4
2017-09-12T10:31:19.949Z,20.6
2017-09-12T10:32:21.362Z,20.7
2017-09-12T10:33:42.885Z,20.7
2017-09-12T10:34:44.299Z,20.8
2017-09-12T10:36:05.804Z,20.9
2017-09-12T10:37:07.216Z,20.8
2017-09-12T10:38:28.742Z,20.8
2017-09-12T10:39:30.155Z,20.8
2017-09-12T10:40:51.660Z,20.8
2017-09-12T10:41:53.070Z,20.8
2017-09-12T10:43:14.597Z,21.0
2017-09-12T10:44:16.009Z,21.1
2017-09-12T10:45:37.516Z,21.3
2017-09-12T10:46:38.931Z,21.3
2017-09-12T10:48:00.456Z,21.4
2017-09-12T10:49:01.869Z,21.3
2017-09-12T10:50:23.876Z,21.2
2017-09-12T10:51:25.293Z,21.0
2017-09-12T10:52:46.798Z,20.9
2017-09-12T10:53:48.211Z,20.8
2017-09-12T10:55:10.224Z,20.7
2017-09-12T10:56:11.636Z,20.5
2017-09-12T10:57:33.145Z,20.6
2017-09-12T10:58:34.557Z,20.6
2017-09-12T10:59:56.087Z,20.6
2017-09-12T11:00:57.499Z,20.6
2017-09-12T11:02:19.009Z,20.6
2017-09-12T11:03:20.418Z,20.6
2017-09-12T11:04:41.947Z,20.8
2017-09-12T11:05:43.359Z,20.9
2017-09-12T11:07:04.861Z,21.0
2017-09-12T11:08:06.274Z,20.9
2017-09-12T11:09:27.801Z,21.0
2017-09-12T11:10:29.213Z,21.2
2017-09-12T11:11:50.721Z,21.0
2017-09-12T11:12:52.134Z,20.9
2017-09-12T11:14:13.658Z,20.9
2017-09-12T11:15:15.070Z,20.8
2017-09-12T11:16:38.069Z,20.8
2017-09-12T11:17:39.480Z,20.6
2017-09-12T11:19:01.005Z,20.6
2017-09-12T11:20:02.431Z,20.7
2017-09-12T11:21:23.924Z,20.5
2017-09-12T11:22:25.334Z,20.6
2017-09-12T11:23:47.353Z,20.6
2017-09-12T11:24:48.764Z,20.6
2017-09-12T11:26:10.275Z,20.7
2017-09-12T11:27:11.687Z,20.6
2017-09-12T11:28:33.215Z,20.6
2017-09-12T11:29:34.626Z,20.8
2017-09-12T11:30:56.625Z,20.8
2017-09-12T11:31:58.038Z,20.9
2017-09-12T11:33:19.567Z,20.9
2017-09-12T11:34:20.979Z,20.7
2017-09-12T11:35:42.492Z,20.9
2017-09-12T11:36:43.905Z,20.9
2017-09-12T11:38:05.413Z,20.9
2017-09-12T11:39:06.823Z,20.9
2017-09-12T11:40:28.348Z,20.9
2017-09-12T11:41:29.759Z,20.9
2017-09-12T11:42:51.275Z,20.8
2017-09-12T11:43:52.680Z,20.9
2017-09-12T11:45:14.226Z,20.8
2017-09-12T11:46:15.621Z,20.7
2017-09-12T11:47:37.624Z,20.9
2017-09-12T11:48:39.033Z,20.9
2017-09-12T11:50:00.562Z,21.0
2017-09-12T11:51:01.983Z,21.1
2017-09-12T11:52:23.480Z,21.2
2017-09-12T11:53:24.890Z,21.3
2017-09-12T11:54:46.423Z,21.2
2017-09-12T11:55:47.832Z,21.0
2017-09-12T11:57:09.341Z,20.8
2017-09-12T11:58:10.754Z,20.7
2017-09-12T11:59:32.278Z,20.5
2017-09-12T12:00:33.690Z,20.2
2017-09-12T12:01:55.198Z,20.5
2017-09-12T12:02:56.603Z,20.6
2017-09-12T12:04:18.129Z,20.9
2017-09-12T12:05:19.541Z,20.9
2017-09-12T12:06:41.050Z,20.8
2017-09-12T12:07:42.462Z,20.7
2017-09-12T12:09:03.987Z,20.7
2017-09-12T12:10:05.397Z,20.7
2017-09-12T12:11:26.902Z,20.7
2017-09-12T12:12:28.312Z,20.7
2017-09-12T12:13:49.864Z,20.7
2017-09-12T12:14:51.247Z,20.7
2017-09-12T12:16:12.759Z,20.7
2017-09-12T12:17:14.165Z,20.6
2017-09-12T12:18:35.691Z,20.5
2017-09-12T12:19:37.100Z,20.6
2017-09-12T12:20:58.603Z,20.3
2017-09-12T12:22:00.014Z,20.4
2017-09-12T12:23:21.524Z,20.5
2017-09-12T12:24:22.938Z,20.6
2017-09-12T12:25:44.454Z,20.7
2017-09-12T12:26:45.867Z,20.7
2017-09-12T12:28:07.372Z,20.9
2017-09-12T12:29:08.783Z,20.9
2017-09-12T12:30:30.305Z,21.1
2017-09-12T12:31:31.718Z,21.0
2017-09-12T12:32:53.228Z,21.2
2017-09-12T12:33:54.637Z,21.2
2017-09-12T12:35:16.166Z,21.2
2017-09-12T12:36:17.576Z,21.2
2017-09-12T12:37:39.573Z,21.3
2017-09-12T12:38:40.987Z,21.4
2017-09-12T12:40:02.509Z,21.5
2017-09-12T12:41:03.919Z,21.5
2017-09-12T12:42:25.422Z,21.6
2017-09-12T12:43:26.833Z,21.7
2017-09-12T12:44:48.381Z,21.8
2017-09-12T12:45:49.775Z,21.8
2017-09-12T12:47:11.277Z,21.8
2017-09-12T12:48:12.686Z,21.8
2017-09-12T12:49:34.215Z,21.5
2017-09-12T12:50:35.627Z,21.3
2017-09-12T12:51:57.135Z,21.3
2017-09-12T12:52:58.545Z,21.2
2017-09-12T12:54:20.072Z,21.2
2017-09-12T12:55:21.482Z,20.9
2017-09-12T12:56:43.482Z,20.8
2017-09-12T12:57:44.891Z,20.9
2017-09-12T12:59:06.421Z,20.9
2017-09-12T13:00:07.830Z,20.9
2017-09-12T13:01:29.335Z,20.9
2017-09-12T13:02:30.745Z,20.7
2017-09-12T13:03:52.247Z,20.7
2017-09-12T13:04:53.658Z,20.7
2017-09-12T13:06:15.181Z,20.5
2017-09-12T13:07:16.593Z,20.7
2017-09-12T13:08:38.104Z,20.8
2017-09-12T13:09:39.514Z,21.0
2017-09-12T13:11:01.037Z,21.2
2017-09-12T13:12:02.452Z,21.2
2017-09-12T13:13:23.952Z,21.2
2017-09-12T13:14:25.363Z,21.3
2017-09-12T13:15:46.885Z,21.4
2017-09-12T13:16:48.366Z,21.5
2017-09-12T13:18:09.871Z,21.6
2017-09-12T13:19:11.279Z,21.5
2017-09-12T13:20:33.039Z,21.3
2017-09-12T13:21:34.500Z,21.3
2017-09-12T13:22:56.004Z,21.2
2017-09-12T13:23:57.422Z,21.2
2017-09-12T13:25:18.950Z,21.2
2017-09-12T13:26:20.361Z,21.2
2017-09-12T13:27:41.872Z,21.3
2017-09-12T13:28:43.283Z,21.3
2017-09-12T13:30:05.299Z,21.4
2017-09-12T13:31:06.715Z,21.4
2017-09-12T13:32:28.223Z,21.5
2017-09-12T13:33:29.634Z,21.6
2017-09-12T13:34:51.173Z,21.7
2017-09-12T13:35:52.587Z,21.8
2017-09-12T13:37:14.136Z,21.7
2017-09-12T13:38:15.549Z,21.7
2017-09-12T13:39:37.109Z,21.6
2017-09-12T13:40:38.498Z,21.4
2017-09-12T13:42:00.527Z,21.2
2017-09-12T13:43:01.935Z,21.1
2017-09-12T13:44:23.473Z,20.8
2017-09-12T13:45:24.890Z,20.6
2017-09-12T13:46:47.911Z,20.5
2017-09-12T13:47:49.367Z,20.3
2017-09-12T13:49:10.880Z,20.4
2017-09-12T13:50:12.353Z,20.3
2017-09-12T13:51:33.936Z,20.2
2017-09-12T13:52:35.392Z,20.2
2017-09-12T13:53:56.932Z,20.2
2017-09-12T13:54:58.351Z,20.3
2017-09-12T13:56:19.963Z,20.2
2017-09-12T13:57:21.379Z,20.1
2017-09-12T13:58:43.021Z,20.2
2017-09-12T13:59:44.435Z,20.3
2017-09-12T14:01:05.959Z,20.3
2017-09-12T14:02:07.370Z,20.1
2017-09-12T14:03:28.878Z,20.0
2017-09-12T14:04:30.381Z,20.1
2017-09-12T14:05:52.399Z,19.9
2017-09-12T14:06:53.851Z,20.0
2017-09-12T14:08:15.420Z,19.9
2017-09-12T14:09:16.890Z,19.9
2017-09-12T14:10:38.520Z,19.9
2017-09-12T14:11:39.932Z,19.8
2017-09-12T14:13:01.538Z,19.9
2017-09-12T14:14:02.948Z,19.7
2017-09-12T14:15:24.472Z,19.5
2017-09-12T14:16:25.883Z,19.4
2017-09-12T14:17:47.578Z,19.1
2017-09-12T14:18:49.014Z,19.0
2017-09-12T14:20:11.035Z,18.9
2017-09-12T14:21:12.442Z,18.9
2017-09-12T14:22:33.986Z,18.7
2017-09-12T14:23:35.488Z,18.3
2017-09-12T14:24:57.044Z,17.8
2017-09-12T14:25:58.568Z,17.3
2017-09-12T14:27:20.072Z,16.9
2017-09-12T14:28:21.632Z,16.6
2017-09-12T14:29:43.154Z,16.4
2017-09-12T14:30:44.601Z,16.3
2017-09-12T14:32:06.231Z,16.1
2017-09-12T14:33:07.800Z,16.0
2017-09-12T14:34:29.353Z,16.0
2017-09-12T14:35:30.907Z,16.0
2017-09-12T14:36:52.538Z,16.0
2017-09-12T14:37:53.991Z,16.2
2017-09-12T14:39:15.604Z,16.4
2017-09-12T14:40:17.014Z,16.6
2017-09-12T14:41:38.614Z,16.8
2017-09-12T14:42:40.055Z,16.9
2017-09-12T14:44:01.652Z,17.0
2017-09-12T14:45:03.061Z,17.1
2017-09-12T14:46:26.189Z,17.3
2017-09-12T14:47:27.598Z,17.3
2017-09-12T14:48:49.108Z,17.4
2017-09-12T14:49:50.512Z,17.4
2017-09-12T14:51:12.619Z,17.5
2017-09-12T14:52:14.092Z,17.5
2017-09-12T14:53:35.681Z,17.7
2017-09-12T14:54:37.090Z,17.7
2017-09-12T14:55:59.071Z,17.8
2017-09-12T14:57:00.584Z,17.7
2017-09-12T14:58:22.135Z,17.8
2017-09-12T14:59:23.552Z,17.8
2017-09-12T15:00:45.218Z,17.8
2017-09-12T15:01:46.672Z,17.8
2017-09-12T15:03:08.199Z,17.8
2017-09-12T15:03:44.245Z,17.8
2017-09-12T15:04:45.708Z,17.8
2017-09-12T15:06:07.345Z,17.9
2017-09-12T15:07:08.763Z,17.9
2017-09-12T15:08:30.394Z,18.0
2017-09-12T15:09:31.859Z,18.0
2017-09-12T15:10:53.502Z,17.9
2017-09-12T15:11:54.943Z,18.1
2017-09-12T15:13:16.485Z,18.0
2017-09-12T15:14:17.948Z,18.0
2017-09-12T15:15:49.471Z,18.2
2017-09-12T15:16:50.884Z,18.2
2017-09-12T15:18:12.435Z,18.4
2017-09-12T15:19:13.942Z,18.5
2017-09-12T15:20:35.462Z,18.6
2017-09-12T15:21:36.894Z,18.8
2017-09-12T15:22:58.393Z,18.9
2017-09-12T15:23:59.886Z,18.9
2017-09-12T15:25:21.389Z,19.0
2017-09-12T15:26:22.797Z,19.1
2017-09-12T15:27:44.316Z,18.9
2017-09-12T15:28:45.728Z,19.0
2017-09-12T15:30:07.226Z,19.1
2017-09-12T15:31:08.636Z,19.0
2017-09-12T15:32:30.152Z,19.0
2017-09-12T15:33:31.566Z,18.9
2017-09-12T15:34:53.063Z,19.0
2017-09-12T15:35:54.499Z,19.0
2017-09-12T15:37:16.020Z,18.9
2017-09-12T15:38:17.432Z,19.0
2017-09-12T15:39:38.927Z,18.8
2017-09-12T15:40:40.340Z,18.8
2017-09-12T15:42:01.859Z,18.8
2017-09-12T15:43:03.272Z,18.8
2017-09-12T15:44:24.773Z,18.7
2017-09-12T15:45:26.186Z,18.8
2017-09-12T15:46:47.707Z,18.7
2017-09-12T15:47:49.120Z,18.6
2017-09-12T15:49:10.622Z,18.6
2017-09-12T15:50:12.031Z,18.5